sensor_id;sensor_type;location;lat;lon;timestamp;P1;durP1;ratioP1;P2;durP2;ratioP2
25091;SDS011;13082;52.374;4.946;2023-04-24T00:00:56;3.03;;;2.17;;
25091;SDS011;13082;52.374;4.946;2023-04-24T00:03:23;2.80;;;1.90;;
25091;SDS011;13082;52.374;4.946;2023-04-24T00:05:49;2.20;;;1.77;;
25091;SDS011;13082;52.374;4.946;2023-04-24T00:08:16;1.30;;;1.20;;
25091;SDS011;13082;52.374;4.946;2023-04-24T00:10:42;1.17;;;1.17;;
25091;SDS011;13082;52.374;4.946;2023-04-24T00:13:07;1.10;;;1.10;;
25091;SDS011;13082;52.374;4.946;2023-04-24T00:15:33;1.87;;;0.90;;
25091;SDS011;13082;52.374;4.946;2023-04-24T00:17:58;1.13;;;1.10;;
25091;SDS011;13082;52.374;4.946;2023-04-24T00:20:26;1.37;;;1.20;;
25091;SDS011;13082;52.374;4.946;2023-04-24T00:22:54;0.93;;;0.93;;
25091;SDS011;13082;52.374;4.946;2023-04-24T00:25:20;1.47;;;1.10;;
25091;SDS011;13082;52.374;4.946;2023-04-24T00:27:46;1.50;;;1.40;;
25091;SDS011;13082;52.374;4.946;2023-04-24T00:30:11;2.20;;;1.43;;
25091;SDS011;13082;52.374;4.946;2023-04-24T00:32:37;1.67;;;1.50;;
25091;SDS011;13082;52.374;4.946;2023-04-24T00:35:03;1.63;;;1.23;;
25091;SDS011;13082;52.374;4.946;2023-04-24T00:37:29;1.37;;;1.27;;
25091;SDS011;13082;52.374;4.946;2023-04-24T00:39:54;1.37;;;1.27;;
25091;SDS011;13082;52.374;4.946;2023-04-24T00:42:20;1.90;;;1.80;;
25091;SDS011;13082;52.374;4.946;2023-04-24T00:44:46;2.87;;;1.50;;
25091;SDS011;13082;52.374;4.946;2023-04-24T00:47:12;1.67;;;1.37;;
25091;SDS011;13082;52.374;4.946;2023-04-24T00:49:38;2.20;;;1.10;;
25091;SDS011;13082;52.374;4.946;2023-04-24T00:52:03;1.97;;;1.40;;
25091;SDS011;13082;52.374;4.946;2023-04-24T00:54:32;1.60;;;1.50;;
25091;SDS011;13082;52.374;4.946;2023-04-24T00:56:58;2.10;;;1.30;;
25091;SDS011;13082;52.374;4.946;2023-04-24T00:59:24;1.77;;;1.67;;
25091;SDS011;13082;52.374;4.946;2023-04-24T01:01:49;3.70;;;1.47;;
25091;SDS011;13082;52.374;4.946;2023-04-24T01:04:16;2.90;;;2.07;;
25091;SDS011;13082;52.374;4.946;2023-04-24T01:06:42;3.30;;;2.70;;
25091;SDS011;13082;52.374;4.946;2023-04-24T01:09:10;3.53;;;2.43;;
25091;SDS011;13082;52.374;4.946;2023-04-24T01:11:37;3.50;;;3.20;;
25091;SDS011;13082;52.374;4.946;2023-04-24T01:14:03;3.13;;;2.70;;
25091;SDS011;13082;52.374;4.946;2023-04-24T01:16:28;2.40;;;2.20;;
25091;SDS011;13082;52.374;4.946;2023-04-24T01:18:54;1.70;;;1.60;;
25091;SDS011;13082;52.374;4.946;2023-04-24T01:21:20;1.40;;;1.30;;
25091;SDS011;13082;52.374;4.946;2023-04-24T01:23:46;1.40;;;1.30;;
25091;SDS011;13082;52.374;4.946;2023-04-24T01:26:13;1.50;;;1.40;;
25091;SDS011;13082;52.374;4.946;2023-04-24T01:28:42;1.80;;;1.20;;
25091;SDS011;13082;52.374;4.946;2023-04-24T01:31:08;0.90;;;0.90;;
25091;SDS011;13082;52.374;4.946;2023-04-24T01:33:33;1.10;;;1.07;;
25091;SDS011;13082;52.374;4.946;2023-04-24T01:35:59;1.23;;;1.13;;
25091;SDS011;13082;52.374;4.946;2023-04-24T01:38:25;0.90;;;0.90;;
25091;SDS011;13082;52.374;4.946;2023-04-24T01:40:51;1.03;;;1.00;;
25091;SDS011;13082;52.374;4.946;2023-04-24T01:43:18;4.33;;;1.57;;
25091;SDS011;13082;52.374;4.946;2023-04-24T01:45:44;0.80;;;0.70;;
25091;SDS011;13082;52.374;4.946;2023-04-24T01:48:10;0.80;;;0.80;;
25091;SDS011;13082;52.374;4.946;2023-04-24T01:50:37;1.23;;;0.80;;
25091;SDS011;13082;52.374;4.946;2023-04-24T01:53:02;1.37;;;0.80;;
25091;SDS011;13082;52.374;4.946;2023-04-24T01:55:28;0.57;;;0.57;;
25091;SDS011;13082;52.374;4.946;2023-04-24T01:57:54;0.70;;;0.70;;
25091;SDS011;13082;52.374;4.946;2023-04-24T02:00:21;2.47;;;0.80;;
25091;SDS011;13082;52.374;4.946;2023-04-24T02:02:47;0.83;;;0.83;;
25091;SDS011;13082;52.374;4.946;2023-04-24T02:05:12;0.63;;;0.63;;
25091;SDS011;13082;52.374;4.946;2023-04-24T02:07:38;2.93;;;0.90;;
25091;SDS011;13082;52.374;4.946;2023-04-24T02:10:04;0.80;;;0.80;;
25091;SDS011;13082;52.374;4.946;2023-04-24T02:12:31;1.03;;;0.80;;
25091;SDS011;13082;52.374;4.946;2023-04-24T02:14:56;0.73;;;0.70;;
25091;SDS011;13082;52.374;4.946;2023-04-24T02:17:22;2.67;;;1.10;;
25091;SDS011;13082;52.374;4.946;2023-04-24T02:19:48;1.43;;;0.70;;
25091;SDS011;13082;52.374;4.946;2023-04-24T02:22:13;0.70;;;0.70;;
25091;SDS011;13082;52.374;4.946;2023-04-24T02:24:39;2.57;;;1.10;;
25091;SDS011;13082;52.374;4.946;2023-04-24T02:27:05;3.80;;;0.87;;
25091;SDS011;13082;52.374;4.946;2023-04-24T02:29:31;0.70;;;0.70;;
25091;SDS011;13082;52.374;4.946;2023-04-24T02:31:56;3.53;;;0.90;;
25091;SDS011;13082;52.374;4.946;2023-04-24T02:34:22;1.93;;;1.23;;
25091;SDS011;13082;52.374;4.946;2023-04-24T02:36:48;0.70;;;0.70;;
25091;SDS011;13082;52.374;4.946;2023-04-24T02:39:14;1.20;;;0.60;;
25091;SDS011;13082;52.374;4.946;2023-04-24T02:41:41;0.60;;;0.60;;
25091;SDS011;13082;52.374;4.946;2023-04-24T02:44:07;1.47;;;0.60;;
25091;SDS011;13082;52.374;4.946;2023-04-24T02:46:33;0.70;;;0.70;;
25091;SDS011;13082;52.374;4.946;2023-04-24T02:48:59;0.50;;;0.50;;
25091;SDS011;13082;52.374;4.946;2023-04-24T02:51:24;3.50;;;0.80;;
25091;SDS011;13082;52.374;4.946;2023-04-24T02:53:50;0.90;;;0.60;;
25091;SDS011;13082;52.374;4.946;2023-04-24T02:56:16;0.70;;;0.60;;
25091;SDS011;13082;52.374;4.946;2023-04-24T02:58:41;0.60;;;0.60;;
25091;SDS011;13082;52.374;4.946;2023-04-24T03:01:07;0.53;;;0.53;;
25091;SDS011;13082;52.374;4.946;2023-04-24T03:03:35;0.90;;;0.70;;
25091;SDS011;13082;52.374;4.946;2023-04-24T03:06:01;0.97;;;0.67;;
25091;SDS011;13082;52.374;4.946;2023-04-24T03:08:26;0.60;;;0.60;;
25091;SDS011;13082;52.374;4.946;2023-04-24T03:10:52;0.70;;;0.70;;
25091;SDS011;13082;52.374;4.946;2023-04-24T03:13:18;0.50;;;0.50;;
25091;SDS011;13082;52.374;4.946;2023-04-24T03:15:43;0.67;;;0.67;;
25091;SDS011;13082;52.374;4.946;2023-04-24T03:18:10;0.50;;;0.50;;
25091;SDS011;13082;52.374;4.946;2023-04-24T03:20:35;0.50;;;0.50;;
25091;SDS011;13082;52.374;4.946;2023-04-24T03:23:02;2.63;;;0.70;;
25091;SDS011;13082;52.374;4.946;2023-04-24T03:25:28;1.13;;;0.60;;
25091;SDS011;13082;52.374;4.946;2023-04-24T03:27:53;1.13;;;0.60;;
25091;SDS011;13082;52.374;4.946;2023-04-24T03:30:19;0.60;;;0.60;;
25091;SDS011;13082;52.374;4.946;2023-04-24T03:32:45;1.20;;;0.70;;
25091;SDS011;13082;52.374;4.946;2023-04-24T03:35:11;0.57;;;0.57;;
25091;SDS011;13082;52.374;4.946;2023-04-24T03:37:36;0.70;;;0.70;;
25091;SDS011;13082;52.374;4.946;2023-04-24T03:40:02;0.60;;;0.60;;
25091;SDS011;13082;52.374;4.946;2023-04-24T03:42:28;0.70;;;0.70;;
25091;SDS011;13082;52.374;4.946;2023-04-24T03:44:53;0.77;;;0.60;;
25091;SDS011;13082;52.374;4.946;2023-04-24T03:47:19;2.13;;;0.83;;
25091;SDS011;13082;52.374;4.946;2023-04-24T03:49:44;0.87;;;0.70;;
25091;SDS011;13082;52.374;4.946;2023-04-24T03:52:10;1.23;;;0.70;;
25091;SDS011;13082;52.374;4.946;2023-04-24T03:54:36;0.60;;;0.60;;
25091;SDS011;13082;52.374;4.946;2023-04-24T03:57:01;0.60;;;0.60;;
25091;SDS011;13082;52.374;4.946;2023-04-24T03:59:28;0.80;;;0.80;;
25091;SDS011;13082;52.374;4.946;2023-04-24T04:01:54;2.43;;;0.90;;
25091;SDS011;13082;52.374;4.946;2023-04-24T04:04:19;0.60;;;0.60;;
25091;SDS011;13082;52.374;4.946;2023-04-24T04:06:45;0.50;;;0.50;;
25091;SDS011;13082;52.374;4.946;2023-04-24T04:09:11;0.60;;;0.60;;
25091;SDS011;13082;52.374;4.946;2023-04-24T04:11:37;2.63;;;0.80;;
25091;SDS011;13082;52.374;4.946;2023-04-24T04:14:03;1.33;;;0.90;;
25091;SDS011;13082;52.374;4.946;2023-04-24T04:16:28;0.53;;;0.53;;
25091;SDS011;13082;52.374;4.946;2023-04-24T04:18:54;1.43;;;0.83;;
25091;SDS011;13082;52.374;4.946;2023-04-24T04:21:20;1.13;;;0.70;;
25091;SDS011;13082;52.374;4.946;2023-04-24T04:23:46;0.57;;;0.57;;
25091;SDS011;13082;52.374;4.946;2023-04-24T04:26:11;0.83;;;0.83;;
25091;SDS011;13082;52.374;4.946;2023-04-24T04:28:40;0.70;;;0.70;;
25091;SDS011;13082;52.374;4.946;2023-04-24T04:31:06;0.70;;;0.70;;
25091;SDS011;13082;52.374;4.946;2023-04-24T04:33:33;1.33;;;0.67;;
25091;SDS011;13082;52.374;4.946;2023-04-24T04:35:59;0.60;;;0.60;;
25091;SDS011;13082;52.374;4.946;2023-04-24T04:38:25;0.63;;;0.60;;
25091;SDS011;13082;52.374;4.946;2023-04-24T04:40:54;0.90;;;0.90;;
25091;SDS011;13082;52.374;4.946;2023-04-24T04:43:22;1.43;;;0.70;;
25091;SDS011;13082;52.374;4.946;2023-04-24T04:45:49;1.37;;;1.27;;
25091;SDS011;13082;52.374;4.946;2023-04-24T04:48:16;0.97;;;0.97;;
25091;SDS011;13082;52.374;4.946;2023-04-24T04:50:42;0.73;;;0.73;;
25091;SDS011;13082;52.374;4.946;2023-04-24T04:53:08;1.20;;;1.20;;
25091;SDS011;13082;52.374;4.946;2023-04-24T04:55:34;1.90;;;1.80;;
25091;SDS011;13082;52.374;4.946;2023-04-24T04:57:59;3.17;;;2.97;;
25091;SDS011;13082;52.374;4.946;2023-04-24T05:00:25;3.33;;;3.13;;
25091;SDS011;13082;52.374;4.946;2023-04-24T05:02:52;3.40;;;3.20;;
25091;SDS011;13082;52.374;4.946;2023-04-24T05:05:17;1.53;;;1.43;;
25091;SDS011;13082;52.374;4.946;2023-04-24T05:07:43;1.17;;;1.10;;
25091;SDS011;13082;52.374;4.946;2023-04-24T05:10:09;1.27;;;1.17;;
25091;SDS011;13082;52.374;4.946;2023-04-24T05:12:35;1.67;;;1.50;;
25091;SDS011;13082;52.374;4.946;2023-04-24T05:15:01;1.43;;;1.33;;
25091;SDS011;13082;52.374;4.946;2023-04-24T05:17:27;1.23;;;1.17;;
25091;SDS011;13082;52.374;4.946;2023-04-24T05:19:53;2.10;;;1.40;;
25091;SDS011;13082;52.374;4.946;2023-04-24T05:22:18;2.40;;;2.20;;
25091;SDS011;13082;52.374;4.946;2023-04-24T05:24:45;1.93;;;1.67;;
25091;SDS011;13082;52.374;4.946;2023-04-24T05:27:12;1.57;;;1.47;;
25091;SDS011;13082;52.374;4.946;2023-04-24T05:29:37;2.77;;;1.83;;
25091;SDS011;13082;52.374;4.946;2023-04-24T05:32:03;2.50;;;2.30;;
25091;SDS011;13082;52.374;4.946;2023-04-24T05:34:29;8.73;;;3.37;;
25091;SDS011;13082;52.374;4.946;2023-04-24T05:36:55;4.47;;;3.40;;
25091;SDS011;13082;52.374;4.946;2023-04-24T05:39:20;4.97;;;4.10;;
25091;SDS011;13082;52.374;4.946;2023-04-24T05:41:46;10.23;;;4.63;;
25091;SDS011;13082;52.374;4.946;2023-04-24T05:44:11;7.40;;;5.73;;
25091;SDS011;13082;52.374;4.946;2023-04-24T05:46:37;10.63;;;6.27;;
25091;SDS011;13082;52.374;4.946;2023-04-24T05:49:03;18.50;;;6.83;;
25091;SDS011;13082;52.374;4.946;2023-04-24T05:51:28;15.33;;;7.70;;
25091;SDS011;13082;52.374;4.946;2023-04-24T05:53:54;11.10;;;7.33;;
25091;SDS011;13082;52.374;4.946;2023-04-24T05:56:19;11.93;;;7.93;;
25091;SDS011;13082;52.374;4.946;2023-04-24T05:58:45;11.83;;;7.23;;
25091;SDS011;13082;52.374;4.946;2023-04-24T06:01:12;13.23;;;7.53;;
25091;SDS011;13082;52.374;4.946;2023-04-24T06:03:39;12.37;;;7.57;;
25091;SDS011;13082;52.374;4.946;2023-04-24T06:06:05;14.77;;;8.23;;
25091;SDS011;13082;52.374;4.946;2023-04-24T06:08:31;13.63;;;7.73;;
25091;SDS011;13082;52.374;4.946;2023-04-24T06:10:57;14.27;;;8.60;;
25091;SDS011;13082;52.374;4.946;2023-04-24T06:13:23;20.23;;;7.73;;
25091;SDS011;13082;52.374;4.946;2023-04-24T06:15:49;16.43;;;7.83;;
25091;SDS011;13082;52.374;4.946;2023-04-24T06:18:15;13.10;;;6.90;;
25091;SDS011;13082;52.374;4.946;2023-04-24T06:20:41;15.83;;;7.07;;
25091;SDS011;13082;52.374;4.946;2023-04-24T06:23:06;15.40;;;7.67;;
25091;SDS011;13082;52.374;4.946;2023-04-24T06:25:32;11.20;;;6.33;;
25091;SDS011;13082;52.374;4.946;2023-04-24T06:27:58;14.70;;;6.03;;
25091;SDS011;13082;52.374;4.946;2023-04-24T06:30:23;9.23;;;5.87;;
25091;SDS011;13082;52.374;4.946;2023-04-24T06:32:50;12.10;;;6.63;;
25091;SDS011;13082;52.374;4.946;2023-04-24T06:35:16;17.10;;;7.07;;
25091;SDS011;13082;52.374;4.946;2023-04-24T06:37:41;12.57;;;6.83;;
25091;SDS011;13082;52.374;4.946;2023-04-24T06:40:07;10.30;;;6.10;;
25091;SDS011;13082;52.374;4.946;2023-04-24T06:42:34;16.80;;;5.93;;
25091;SDS011;13082;52.374;4.946;2023-04-24T06:45:02;13.60;;;6.40;;
25091;SDS011;13082;52.374;4.946;2023-04-24T06:47:28;16.40;;;6.43;;
25091;SDS011;13082;52.374;4.946;2023-04-24T06:49:54;11.70;;;7.10;;
25091;SDS011;13082;52.374;4.946;2023-04-24T06:52:20;12.33;;;5.20;;
25091;SDS011;13082;52.374;4.946;2023-04-24T06:54:45;11.93;;;6.10;;
25091;SDS011;13082;52.374;4.946;2023-04-24T06:57:11;13.03;;;6.47;;
25091;SDS011;13082;52.374;4.946;2023-04-24T06:59:37;9.93;;;6.13;;
25091;SDS011;13082;52.374;4.946;2023-04-24T07:02:02;12.67;;;5.83;;
25091;SDS011;13082;52.374;4.946;2023-04-24T07:04:28;11.63;;;5.43;;
25091;SDS011;13082;52.374;4.946;2023-04-24T07:06:55;12.97;;;4.87;;
25091;SDS011;13082;52.374;4.946;2023-04-24T07:09:21;11.27;;;4.70;;
25091;SDS011;13082;52.374;4.946;2023-04-24T07:11:48;9.30;;;4.97;;
25091;SDS011;13082;52.374;4.946;2023-04-24T07:14:14;10.27;;;4.70;;
25091;SDS011;13082;52.374;4.946;2023-04-24T07:16:40;10.73;;;4.90;;
25091;SDS011;13082;52.374;4.946;2023-04-24T07:19:06;8.33;;;4.40;;
25091;SDS011;13082;52.374;4.946;2023-04-24T07:21:32;12.47;;;4.50;;
25091;SDS011;13082;52.374;4.946;2023-04-24T07:23:58;8.37;;;5.03;;
25091;SDS011;13082;52.374;4.946;2023-04-24T07:26:24;9.60;;;4.63;;
25091;SDS011;13082;52.374;4.946;2023-04-24T07:28:50;14.93;;;4.43;;
25091;SDS011;13082;52.374;4.946;2023-04-24T07:31:16;11.33;;;4.63;;
25091;SDS011;13082;52.374;4.946;2023-04-24T07:33:42;11.60;;;4.13;;
25091;SDS011;13082;52.374;4.946;2023-04-24T07:36:07;11.97;;;4.30;;
25091;SDS011;13082;52.374;4.946;2023-04-24T07:38:33;12.83;;;4.17;;
25091;SDS011;13082;52.374;4.946;2023-04-24T07:40:58;11.70;;;3.80;;
25091;SDS011;13082;52.374;4.946;2023-04-24T07:43:24;9.17;;;3.40;;
25091;SDS011;13082;52.374;4.946;2023-04-24T07:45:50;7.70;;;3.13;;
25091;SDS011;13082;52.374;4.946;2023-04-24T07:48:16;10.67;;;2.93;;
25091;SDS011;13082;52.374;4.946;2023-04-24T07:50:42;11.90;;;3.17;;
25091;SDS011;13082;52.374;4.946;2023-04-24T07:53:09;4.87;;;2.87;;
25091;SDS011;13082;52.374;4.946;2023-04-24T07:55:34;13.77;;;3.77;;
25091;SDS011;13082;52.374;4.946;2023-04-24T07:58:00;11.77;;;2.80;;
25091;SDS011;13082;52.374;4.946;2023-04-24T08:00:26;10.80;;;2.93;;
25091;SDS011;13082;52.374;4.946;2023-04-24T08:02:51;9.70;;;3.00;;
25091;SDS011;13082;52.374;4.946;2023-04-24T08:05:17;4.03;;;2.07;;
25091;SDS011;13082;52.374;4.946;2023-04-24T08:07:43;13.87;;;2.73;;
25091;SDS011;13082;52.374;4.946;2023-04-24T08:10:11;10.07;;;3.00;;
25091;SDS011;13082;52.374;4.946;2023-04-24T08:12:37;18.93;;;4.23;;
25091;SDS011;13082;52.374;4.946;2023-04-24T08:15:03;12.97;;;3.13;;
25091;SDS011;13082;52.374;4.946;2023-04-24T08:17:29;11.83;;;3.47;;
25091;SDS011;13082;52.374;4.946;2023-04-24T08:19:55;15.37;;;3.30;;
25091;SDS011;13082;52.374;4.946;2023-04-24T08:22:26;6.70;;;2.67;;
25091;SDS011;13082;52.374;4.946;2023-04-24T08:24:55;7.93;;;2.20;;
25091;SDS011;13082;52.374;4.946;2023-04-24T08:27:22;5.40;;;2.10;;
25091;SDS011;13082;52.374;4.946;2023-04-24T08:29:49;10.37;;;2.83;;
25091;SDS011;13082;52.374;4.946;2023-04-24T08:32:15;5.47;;;1.93;;
25091;SDS011;13082;52.374;4.946;2023-04-24T08:34:42;8.80;;;2.47;;
25091;SDS011;13082;52.374;4.946;2023-04-24T08:37:07;7.83;;;2.23;;
25091;SDS011;13082;52.374;4.946;2023-04-24T08:39:33;6.97;;;2.40;;
25091;SDS011;13082;52.374;4.946;2023-04-24T08:41:59;10.67;;;2.30;;
25091;SDS011;13082;52.374;4.946;2023-04-24T08:44:30;7.43;;;2.17;;
25091;SDS011;13082;52.374;4.946;2023-04-24T08:46:57;7.70;;;2.20;;
25091;SDS011;13082;52.374;4.946;2023-04-24T08:49:23;6.47;;;2.47;;
25091;SDS011;13082;52.374;4.946;2023-04-24T08:51:50;8.67;;;2.57;;
25091;SDS011;13082;52.374;4.946;2023-04-24T08:54:17;9.83;;;1.80;;
25091;SDS011;13082;52.374;4.946;2023-04-24T08:56:44;6.53;;;2.20;;
25091;SDS011;13082;52.374;4.946;2023-04-24T08:59:10;9.07;;;2.57;;
25091;SDS011;13082;52.374;4.946;2023-04-24T09:01:37;7.37;;;2.30;;
25091;SDS011;13082;52.374;4.946;2023-04-24T09:04:04;3.47;;;1.90;;
25091;SDS011;13082;52.374;4.946;2023-04-24T09:06:32;6.70;;;2.17;;
25091;SDS011;13082;52.374;4.946;2023-04-24T09:09:00;11.00;;;2.10;;
25091;SDS011;13082;52.374;4.946;2023-04-24T09:11:26;5.70;;;2.20;;
25091;SDS011;13082;52.374;4.946;2023-04-24T09:13:56;7.33;;;2.43;;
25091;SDS011;13082;52.374;4.946;2023-04-24T09:16:21;5.50;;;2.00;;
25091;SDS011;13082;52.374;4.946;2023-04-24T09:18:49;5.87;;;2.43;;
25091;SDS011;13082;52.374;4.946;2023-04-24T09:21:15;3.53;;;2.17;;
25091;SDS011;13082;52.374;4.946;2023-04-24T09:23:41;9.77;;;2.17;;
25091;SDS011;13082;52.374;4.946;2023-04-24T09:26:06;7.97;;;2.00;;
25091;SDS011;13082;52.374;4.946;2023-04-24T09:28:36;5.77;;;2.47;;
25091;SDS011;13082;52.374;4.946;2023-04-24T09:31:13;9.33;;;1.73;;
25091;SDS011;13082;52.374;4.946;2023-04-24T09:34:02;10.03;;;2.77;;
25091;SDS011;13082;52.374;4.946;2023-04-24T09:36:33;6.60;;;1.90;;
25091;SDS011;13082;52.374;4.946;2023-04-24T09:39:04;4.60;;;2.07;;
25091;SDS011;13082;52.374;4.946;2023-04-24T09:41:33;8.23;;;3.00;;
25091;SDS011;13082;52.374;4.946;2023-04-24T09:44:10;7.63;;;2.47;;
25091;SDS011;13082;52.374;4.946;2023-04-24T09:46:50;3.57;;;1.47;;
25091;SDS011;13082;52.374;4.946;2023-04-24T09:49:21;6.23;;;2.33;;
25091;SDS011;13082;52.374;4.946;2023-04-24T09:51:50;8.47;;;1.93;;
25091;SDS011;13082;52.374;4.946;2023-04-24T09:54:17;5.53;;;1.70;;
25091;SDS011;13082;52.374;4.946;2023-04-24T09:56:50;4.80;;;1.97;;
25091;SDS011;13082;52.374;4.946;2023-04-24T09:59:17;3.70;;;1.50;;
25091;SDS011;13082;52.374;4.946;2023-04-24T10:01:43;6.30;;;2.50;;
25091;SDS011;13082;52.374;4.946;2023-04-24T10:04:16;3.20;;;1.47;;
25091;SDS011;13082;52.374;4.946;2023-04-24T10:06:47;1.70;;;1.10;;
25091;SDS011;13082;52.374;4.946;2023-04-24T10:09:16;6.13;;;1.47;;
25091;SDS011;13082;52.374;4.946;2023-04-24T10:11:44;2.07;;;1.47;;
25091;SDS011;13082;52.374;4.946;2023-04-24T10:14:15;3.60;;;1.03;;
25091;SDS011;13082;52.374;4.946;2023-04-24T10:16:46;1.20;;;1.10;;
25091;SDS011;13082;52.374;4.946;2023-04-24T10:19:12;2.07;;;1.10;;
25091;SDS011;13082;52.374;4.946;2023-04-24T10:21:40;1.50;;;1.00;;
25091;SDS011;13082;52.374;4.946;2023-04-24T10:24:10;1.00;;;1.00;;
25091;SDS011;13082;52.374;4.946;2023-04-24T10:26:38;1.30;;;1.27;;
25091;SDS011;13082;52.374;4.946;2023-04-24T10:29:05;6.73;;;1.33;;
25091;SDS011;13082;52.374;4.946;2023-04-24T10:31:37;3.03;;;1.23;;
25091;SDS011;13082;52.374;4.946;2023-04-24T10:34:06;5.90;;;1.30;;
25091;SDS011;13082;52.374;4.946;2023-04-24T10:36:34;1.53;;;1.00;;
25091;SDS011;13082;52.374;4.946;2023-04-24T10:39:02;3.43;;;1.70;;
25091;SDS011;13082;52.374;4.946;2023-04-24T10:41:31;7.00;;;1.30;;
25091;SDS011;13082;52.374;4.946;2023-04-24T10:46:39;6.10;;;1.50;;
25091;SDS011;13082;52.374;4.946;2023-04-24T10:49:08;1.30;;;1.20;;
25091;SDS011;13082;52.374;4.946;2023-04-24T10:51:47;8.93;;;1.37;;
25091;SDS011;13082;52.374;4.946;2023-04-24T10:54:34;3.07;;;1.10;;
25091;SDS011;13082;52.374;4.946;2023-04-24T10:59:48;2.90;;;1.13;;
25091;SDS011;13082;52.374;4.946;2023-04-24T11:02:15;4.47;;;1.50;;
25091;SDS011;13082;52.374;4.946;2023-04-24T11:04:42;2.53;;;1.57;;
25091;SDS011;13082;52.374;4.946;2023-04-24T11:07:09;2.97;;;1.10;;
25091;SDS011;13082;52.374;4.946;2023-04-24T11:09:35;4.77;;;1.50;;
25091;SDS011;13082;52.374;4.946;2023-04-24T11:12:08;4.17;;;1.13;;
25091;SDS011;13082;52.374;4.946;2023-04-24T11:17:35;2.77;;;1.20;;
25091;SDS011;13082;52.374;4.946;2023-04-24T11:20:06;4.50;;;1.40;;
25091;SDS011;13082;52.374;4.946;2023-04-24T11:22:34;3.33;;;1.30;;
25091;SDS011;13082;52.374;4.946;2023-04-24T11:25:02;5.27;;;1.70;;
25091;SDS011;13082;52.374;4.946;2023-04-24T11:27:32;4.03;;;1.60;;
25091;SDS011;13082;52.374;4.946;2023-04-24T11:30:05;8.63;;;1.80;;
25091;SDS011;13082;52.374;4.946;2023-04-24T11:37:42;1.33;;;1.00;;
25091;SDS011;13082;52.374;4.946;2023-04-24T11:40:14;3.33;;;0.90;;
25091;SDS011;13082;52.374;4.946;2023-04-24T11:42:41;2.30;;;1.17;;
25091;SDS011;13082;52.374;4.946;2023-04-24T11:45:09;2.10;;;1.00;;
25091;SDS011;13082;52.374;4.946;2023-04-24T11:47:43;5.30;;;1.40;;
25091;SDS011;13082;52.374;4.946;2023-04-24T11:50:11;2.90;;;1.30;;
25091;SDS011;13082;52.374;4.946;2023-04-24T11:52:42;10.70;;;2.13;;
25091;SDS011;13082;52.374;4.946;2023-04-24T11:57:44;6.73;;;1.83;;
25091;SDS011;13082;52.374;4.946;2023-04-24T12:00:15;6.30;;;1.70;;
25091;SDS011;13082;52.374;4.946;2023-04-24T12:02:43;5.77;;;1.53;;
25091;SDS011;13082;52.374;4.946;2023-04-24T12:05:09;2.83;;;1.83;;
25091;SDS011;13082;52.374;4.946;2023-04-24T12:07:44;4.73;;;1.87;;
25091;SDS011;13082;52.374;4.946;2023-04-24T12:10:10;7.77;;;2.40;;
25091;SDS011;13082;52.374;4.946;2023-04-24T12:12:35;4.97;;;2.03;;
25091;SDS011;13082;52.374;4.946;2023-04-24T12:15:01;10.43;;;2.27;;
25091;SDS011;13082;52.374;4.946;2023-04-24T12:17:33;9.83;;;2.20;;
25091;SDS011;13082;52.374;4.946;2023-04-24T12:20:00;4.83;;;2.10;;
25091;SDS011;13082;52.374;4.946;2023-04-24T12:22:28;7.40;;;1.83;;
25091;SDS011;13082;52.374;4.946;2023-04-24T12:25:13;8.67;;;2.30;;
25091;SDS011;13082;52.374;4.946;2023-04-24T12:27:39;6.80;;;2.13;;
25091;SDS011;13082;52.374;4.946;2023-04-24T12:30:05;5.93;;;2.03;;
25091;SDS011;13082;52.374;4.946;2023-04-24T12:32:40;7.87;;;2.00;;
25091;SDS011;13082;52.374;4.946;2023-04-24T12:35:07;14.17;;;2.33;;
25091;SDS011;13082;52.374;4.946;2023-04-24T12:37:33;6.23;;;2.03;;
25091;SDS011;13082;52.374;4.946;2023-04-24T12:40:02;11.93;;;2.37;;
25091;SDS011;13082;52.374;4.946;2023-04-24T12:42:32;11.07;;;2.60;;
25091;SDS011;13082;52.374;4.946;2023-04-24T12:44:59;11.20;;;4.03;;
25091;SDS011;13082;52.374;4.946;2023-04-24T12:47:27;8.67;;;2.83;;
25091;SDS011;13082;52.374;4.946;2023-04-24T12:49:53;7.60;;;2.47;;
25091;SDS011;13082;52.374;4.946;2023-04-24T12:52:20;12.97;;;3.13;;
25091;SDS011;13082;52.374;4.946;2023-04-24T12:54:50;9.53;;;2.83;;
25091;SDS011;13082;52.374;4.946;2023-04-24T12:57:20;8.93;;;2.27;;
25091;SDS011;13082;52.374;4.946;2023-04-24T12:59:46;9.17;;;2.80;;
25091;SDS011;13082;52.374;4.946;2023-04-24T13:02:12;9.23;;;3.00;;
25091;SDS011;13082;52.374;4.946;2023-04-24T13:04:38;7.10;;;2.07;;
25091;SDS011;13082;52.374;4.946;2023-04-24T13:07:04;8.40;;;2.67;;
25091;SDS011;13082;52.374;4.946;2023-04-24T13:09:30;6.90;;;2.23;;
25091;SDS011;13082;52.374;4.946;2023-04-24T13:11:56;4.37;;;2.20;;
25091;SDS011;13082;52.374;4.946;2023-04-24T13:14:22;10.87;;;2.77;;
25091;SDS011;13082;52.374;4.946;2023-04-24T13:16:48;10.53;;;2.80;;
25091;SDS011;13082;52.374;4.946;2023-04-24T13:19:14;8.93;;;3.57;;
25091;SDS011;13082;52.374;4.946;2023-04-24T13:21:40;9.43;;;2.63;;
25091;SDS011;13082;52.374;4.946;2023-04-24T13:24:05;10.27;;;3.30;;
25091;SDS011;13082;52.374;4.946;2023-04-24T13:26:32;13.43;;;2.67;;
25091;SDS011;13082;52.374;4.946;2023-04-24T13:28:58;9.80;;;3.10;;
25091;SDS011;13082;52.374;4.946;2023-04-24T13:31:24;8.77;;;2.37;;
25091;SDS011;13082;52.374;4.946;2023-04-24T13:33:50;6.40;;;2.97;;
25091;SDS011;13082;52.374;4.946;2023-04-24T13:36:15;12.60;;;2.77;;
25091;SDS011;13082;52.374;4.946;2023-04-24T13:38:42;9.83;;;2.63;;
25091;SDS011;13082;52.374;4.946;2023-04-24T13:41:09;9.70;;;2.73;;
25091;SDS011;13082;52.374;4.946;2023-04-24T13:43:35;13.70;;;3.00;;
25091;SDS011;13082;52.374;4.946;2023-04-24T13:46:01;6.40;;;2.20;;
25091;SDS011;13082;52.374;4.946;2023-04-24T13:48:28;5.63;;;1.90;;
25091;SDS011;13082;52.374;4.946;2023-04-24T13:50:54;6.67;;;2.13;;
25091;SDS011;13082;52.374;4.946;2023-04-24T13:53:20;11.07;;;2.93;;
25091;SDS011;13082;52.374;4.946;2023-04-24T13:55:45;8.77;;;2.57;;
25091;SDS011;13082;52.374;4.946;2023-04-24T13:58:11;4.67;;;2.17;;
25091;SDS011;13082;52.374;4.946;2023-04-24T14:00:36;9.77;;;2.03;;
25091;SDS011;13082;52.374;4.946;2023-04-24T14:03:02;3.03;;;2.00;;
25091;SDS011;13082;52.374;4.946;2023-04-24T14:05:28;2.40;;;1.50;;
25091;SDS011;13082;52.374;4.946;2023-04-24T14:07:54;5.10;;;2.13;;
25091;SDS011;13082;52.374;4.946;2023-04-24T14:10:20;3.57;;;1.50;;
25091;SDS011;13082;52.374;4.946;2023-04-24T14:12:45;4.90;;;1.77;;
25091;SDS011;13082;52.374;4.946;2023-04-24T14:15:11;8.77;;;2.53;;
25091;SDS011;13082;52.374;4.946;2023-04-24T14:17:38;7.80;;;1.87;;
25091;SDS011;13082;52.374;4.946;2023-04-24T14:20:04;7.73;;;2.53;;
25091;SDS011;13082;52.374;4.946;2023-04-24T14:22:30;4.67;;;2.13;;
25091;SDS011;13082;52.374;4.946;2023-04-24T14:24:56;9.23;;;2.40;;
25091;SDS011;13082;52.374;4.946;2023-04-24T14:27:22;9.43;;;2.80;;
25091;SDS011;13082;52.374;4.946;2023-04-24T14:29:49;6.90;;;2.60;;
25091;SDS011;13082;52.374;4.946;2023-04-24T14:32:14;10.60;;;3.03;;
25091;SDS011;13082;52.374;4.946;2023-04-24T14:34:40;9.23;;;2.67;;
25091;SDS011;13082;52.374;4.946;2023-04-24T14:37:06;10.53;;;3.03;;
25091;SDS011;13082;52.374;4.946;2023-04-24T14:39:32;8.90;;;2.93;;
25091;SDS011;13082;52.374;4.946;2023-04-24T14:41:58;11.00;;;3.00;;
25091;SDS011;13082;52.374;4.946;2023-04-24T14:44:23;16.73;;;3.57;;
25091;SDS011;13082;52.374;4.946;2023-04-24T14:46:49;6.13;;;2.63;;
25091;SDS011;13082;52.374;4.946;2023-04-24T14:49:15;11.83;;;3.47;;
25091;SDS011;13082;52.374;4.946;2023-04-24T14:51:41;10.73;;;3.30;;
25091;SDS011;13082;52.374;4.946;2023-04-24T14:54:07;11.47;;;3.17;;
25091;SDS011;13082;52.374;4.946;2023-04-24T14:56:33;9.07;;;2.67;;
25091;SDS011;13082;52.374;4.946;2023-04-24T14:58:58;10.13;;;2.80;;